sensor_id;sensor_type;location;lat;lon;timestamp;P1;durP1;ratioP1;P2;durP2;ratioP2
16199;SDS011;8207;52.494;4.654;2024-03-08T00:00:02;41.88;;;22.02;;
16199;SDS011;8207;52.494;4.654;2024-03-08T00:02:35;44.28;;;21.33;;
16199;SDS011;8207;52.494;4.654;2024-03-08T00:05:01;46.00;;;22.25;;
16199;SDS011;8207;52.494;4.654;2024-03-08T00:07:28;42.70;;;21.45;;
16199;SDS011;8207;52.494;4.654;2024-03-08T00:09:53;41.05;;;21.58;;
16199;SDS011;8207;52.494;4.654;2024-03-08T00:12:19;45.92;;;21.92;;
16199;SDS011;8207;52.494;4.654;2024-03-08T00:14:45;42.65;;;21.77;;
16199;SDS011;8207;52.494;4.654;2024-03-08T00:17:10;42.72;;;21.02;;
16199;SDS011;8207;52.494;4.654;2024-03-08T00:19:36;42.83;;;21.55;;
16199;SDS011;8207;52.494;4.654;2024-03-08T00:22:01;43.65;;;21.83;;
16199;SDS011;8207;52.494;4.654;2024-03-08T00:24:27;43.45;;;21.88;;
16199;SDS011;8207;52.494;4.654;2024-03-08T00:26:53;38.50;;;21.10;;
16199;SDS011;8207;52.494;4.654;2024-03-08T00:29:19;43.47;;;22.08;;
16199;SDS011;8207;52.494;4.654;2024-03-08T00:31:44;43.03;;;21.08;;
16199;SDS011;8207;52.494;4.654;2024-03-08T00:34:10;43.63;;;21.88;;
16199;SDS011;8207;52.494;4.654;2024-03-08T00:36:36;43.83;;;21.90;;
16199;SDS011;8207;52.494;4.654;2024-03-08T00:39:02;48.13;;;22.63;;
16199;SDS011;8207;52.494;4.654;2024-03-08T00:41:31;40.00;;;21.00;;
16199;SDS011;8207;52.494;4.654;2024-03-08T00:43:56;44.95;;;21.88;;
16199;SDS011;8207;52.494;4.654;2024-03-08T00:46:22;42.20;;;21.42;;
16199;SDS011;8207;52.494;4.654;2024-03-08T00:48:47;43.03;;;21.23;;
16199;SDS011;8207;52.494;4.654;2024-03-08T00:51:13;42.63;;;21.02;;
16199;SDS011;8207;52.494;4.654;2024-03-08T00:53:40;41.10;;;21.73;;
16199;SDS011;8207;52.494;4.654;2024-03-08T00:56:06;39.90;;;21.33;;
16199;SDS011;8207;52.494;4.654;2024-03-08T00:58:35;44.42;;;22.40;;
16199;SDS011;8207;52.494;4.654;2024-03-08T01:01:01;42.25;;;21.33;;
16199;SDS011;8207;52.494;4.654;2024-03-08T01:03:27;45.45;;;22.75;;
16199;SDS011;8207;52.494;4.654;2024-03-08T01:05:52;43.53;;;21.17;;
16199;SDS011;8207;52.494;4.654;2024-03-08T01:08:18;42.72;;;21.60;;
16199;SDS011;8207;52.494;4.654;2024-03-08T01:10:43;40.50;;;20.60;;
16199;SDS011;8207;52.494;4.654;2024-03-08T01:13:08;42.60;;;21.30;;
16199;SDS011;8207;52.494;4.654;2024-03-08T01:15:34;40.75;;;20.90;;
16199;SDS011;8207;52.494;4.654;2024-03-08T01:18:00;40.20;;;21.85;;
16199;SDS011;8207;52.494;4.654;2024-03-08T01:20:26;39.88;;;20.08;;
16199;SDS011;8207;52.494;4.654;2024-03-08T01:22:52;41.40;;;21.77;;
16199;SDS011;8207;52.494;4.654;2024-03-08T01:25:18;38.55;;;20.33;;
16199;SDS011;8207;52.494;4.654;2024-03-08T01:27:43;41.55;;;21.33;;
16199;SDS011;8207;52.494;4.654;2024-03-08T01:30:09;40.10;;;20.85;;
16199;SDS011;8207;52.494;4.654;2024-03-08T01:32:34;40.28;;;20.42;;
16199;SDS011;8207;52.494;4.654;2024-03-08T01:35:00;39.67;;;21.42;;
16199;SDS011;8207;52.494;4.654;2024-03-08T01:37:25;39.00;;;21.02;;
16199;SDS011;8207;52.494;4.654;2024-03-08T01:39:50;37.30;;;20.23;;
16199;SDS011;8207;52.494;4.654;2024-03-08T01:42:16;40.17;;;20.63;;
16199;SDS011;8207;52.494;4.654;2024-03-08T01:44:42;40.97;;;20.88;;
16199;SDS011;8207;52.494;4.654;2024-03-08T01:47:09;38.38;;;20.33;;
16199;SDS011;8207;52.494;4.654;2024-03-08T01:49:36;40.10;;;20.17;;
16199;SDS011;8207;52.494;4.654;2024-03-08T01:52:02;40.15;;;21.55;;
16199;SDS011;8207;52.494;4.654;2024-03-08T01:54:28;37.53;;;21.05;;
16199;SDS011;8207;52.494;4.654;2024-03-08T01:56:55;41.90;;;20.75;;
16199;SDS011;8207;52.494;4.654;2024-03-08T01:59:24;40.90;;;20.27;;
16199;SDS011;8207;52.494;4.654;2024-03-08T02:01:51;40.83;;;21.00;;
16199;SDS011;8207;52.494;4.654;2024-03-08T02:04:20;40.75;;;21.95;;
16199;SDS011;8207;52.494;4.654;2024-03-08T02:06:46;38.70;;;21.38;;
16199;SDS011;8207;52.494;4.654;2024-03-08T02:09:11;42.78;;;22.10;;
16199;SDS011;8207;52.494;4.654;2024-03-08T02:11:37;39.13;;;21.75;;
16199;SDS011;8207;52.494;4.654;2024-03-08T02:14:02;38.92;;;21.90;;
16199;SDS011;8207;52.494;4.654;2024-03-08T02:16:27;39.88;;;21.05;;
16199;SDS011;8207;52.494;4.654;2024-03-08T02:18:53;37.75;;;20.98;;
16199;SDS011;8207;52.494;4.654;2024-03-08T02:21:18;37.22;;;20.88;;
16199;SDS011;8207;52.494;4.654;2024-03-08T02:23:44;40.10;;;21.45;;
16199;SDS011;8207;52.494;4.654;2024-03-08T02:26:09;41.20;;;21.90;;
16199;SDS011;8207;52.494;4.654;2024-03-08T02:28:35;40.45;;;21.60;;
16199;SDS011;8207;52.494;4.654;2024-03-08T02:31:01;39.13;;;21.30;;
16199;SDS011;8207;52.494;4.654;2024-03-08T02:33:27;39.22;;;21.77;;
16199;SDS011;8207;52.494;4.654;2024-03-08T02:35:53;42.38;;;23.00;;
16199;SDS011;8207;52.494;4.654;2024-03-08T02:38:20;38.90;;;21.08;;
16199;SDS011;8207;52.494;4.654;2024-03-08T02:40:46;39.50;;;20.65;;
16199;SDS011;8207;52.494;4.654;2024-03-08T02:43:14;38.78;;;20.77;;
16199;SDS011;8207;52.494;4.654;2024-03-08T02:45:41;42.00;;;22.10;;
16199;SDS011;8207;52.494;4.654;2024-03-08T02:48:10;39.28;;;21.50;;
16199;SDS011;8207;52.494;4.654;2024-03-08T02:50:36;39.00;;;21.45;;
16199;SDS011;8207;52.494;4.654;2024-03-08T02:53:02;41.08;;;22.52;;
16199;SDS011;8207;52.494;4.654;2024-03-08T02:55:28;40.97;;;21.95;;
16199;SDS011;8207;52.494;4.654;2024-03-08T02:57:55;41.95;;;22.40;;
16199;SDS011;8207;52.494;4.654;2024-03-08T03:00:21;40.58;;;22.65;;
16199;SDS011;8207;52.494;4.654;2024-03-08T03:02:48;39.40;;;21.90;;
16199;SDS011;8207;52.494;4.654;2024-03-08T03:05:18;41.92;;;21.80;;
16199;SDS011;8207;52.494;4.654;2024-03-08T03:07:47;40.83;;;22.58;;
16199;SDS011;8207;52.494;4.654;2024-03-08T03:10:19;42.33;;;22.83;;
16199;SDS011;8207;52.494;4.654;2024-03-08T03:12:46;43.80;;;22.42;;
16199;SDS011;8207;52.494;4.654;2024-03-08T03:15:13;41.75;;;22.08;;
16199;SDS011;8207;52.494;4.654;2024-03-08T03:17:39;44.60;;;23.25;;
16199;SDS011;8207;52.494;4.654;2024-03-08T03:20:08;40.25;;;22.33;;
16199;SDS011;8207;52.494;4.654;2024-03-08T03:22:38;43.25;;;22.85;;
16199;SDS011;8207;52.494;4.654;2024-03-08T03:25:05;41.22;;;22.90;;
16199;SDS011;8207;52.494;4.654;2024-03-08T03:27:32;43.42;;;23.10;;
16199;SDS011;8207;52.494;4.654;2024-03-08T03:29:57;42.75;;;23.27;;
16199;SDS011;8207;52.494;4.654;2024-03-08T03:32:23;42.08;;;22.52;;
16199;SDS011;8207;52.494;4.654;2024-03-08T03:34:48;39.38;;;22.58;;
16199;SDS011;8207;52.494;4.654;2024-03-08T03:37:17;44.00;;;22.65;;
16199;SDS011;8207;52.494;4.654;2024-03-08T03:39:44;44.00;;;23.95;;
16199;SDS011;8207;52.494;4.654;2024-03-08T03:42:18;42.90;;;22.58;;
16199;SDS011;8207;52.494;4.654;2024-03-08T03:44:47;43.13;;;23.75;;
16199;SDS011;8207;52.494;4.654;2024-03-08T03:47:14;42.78;;;22.88;;
16199;SDS011;8207;52.494;4.654;2024-03-08T03:49:43;43.33;;;23.80;;
16199;SDS011;8207;52.494;4.654;2024-03-08T03:52:08;43.20;;;22.70;;
16199;SDS011;8207;52.494;4.654;2024-03-08T03:54:35;44.95;;;23.30;;
16199;SDS011;8207;52.494;4.654;2024-03-08T03:57:00;45.75;;;23.83;;
16199;SDS011;8207;52.494;4.654;2024-03-08T03:59:27;43.75;;;23.50;;
16199;SDS011;8207;52.494;4.654;2024-03-08T04:01:53;46.50;;;23.80;;
16199;SDS011;8207;52.494;4.654;2024-03-08T04:04:19;41.15;;;22.98;;
16199;SDS011;8207;52.494;4.654;2024-03-08T04:06:45;46.00;;;24.50;;
16199;SDS011;8207;52.494;4.654;2024-03-08T04:09:10;45.15;;;23.52;;
16199;SDS011;8207;52.494;4.654;2024-03-08T04:11:37;43.58;;;23.17;;
16199;SDS011;8207;52.494;4.654;2024-03-08T04:14:03;45.72;;;24.23;;
16199;SDS011;8207;52.494;4.654;2024-03-08T04:16:28;45.03;;;23.65;;
16199;SDS011;8207;52.494;4.654;2024-03-08T04:18:54;45.55;;;23.77;;
16199;SDS011;8207;52.494;4.654;2024-03-08T04:21:19;46.78;;;24.48;;
16199;SDS011;8207;52.494;4.654;2024-03-08T04:23:44;46.47;;;23.88;;
16199;SDS011;8207;52.494;4.654;2024-03-08T04:26:10;45.90;;;24.15;;
16199;SDS011;8207;52.494;4.654;2024-03-08T04:28:35;47.08;;;24.23;;
16199;SDS011;8207;52.494;4.654;2024-03-08T04:31:02;46.13;;;23.65;;
16199;SDS011;8207;52.494;4.654;2024-03-08T04:33:28;44.38;;;23.90;;
16199;SDS011;8207;52.494;4.654;2024-03-08T04:35:53;45.38;;;24.42;;
16199;SDS011;8207;52.494;4.654;2024-03-08T04:38:18;43.78;;;24.20;;
16199;SDS011;8207;52.494;4.654;2024-03-08T04:40:44;44.63;;;24.25;;
16199;SDS011;8207;52.494;4.654;2024-03-08T04:43:09;42.10;;;22.90;;
16199;SDS011;8207;52.494;4.654;2024-03-08T04:45:35;45.45;;;24.08;;
16199;SDS011;8207;52.494;4.654;2024-03-08T04:48:01;43.42;;;23.08;;
16199;SDS011;8207;52.494;4.654;2024-03-08T04:50:27;45.17;;;23.90;;
16199;SDS011;8207;52.494;4.654;2024-03-08T04:52:54;46.78;;;24.85;;
16199;SDS011;8207;52.494;4.654;2024-03-08T04:55:19;46.88;;;25.10;;
16199;SDS011;8207;52.494;4.654;2024-03-08T04:57:46;46.75;;;25.75;;
16199;SDS011;8207;52.494;4.654;2024-03-08T05:00:11;46.63;;;24.85;;
16199;SDS011;8207;52.494;4.654;2024-03-08T05:02:37;48.10;;;25.30;;
16199;SDS011;8207;52.494;4.654;2024-03-08T05:05:06;49.97;;;25.33;;
16199;SDS011;8207;52.494;4.654;2024-03-08T05:07:32;46.30;;;25.27;;
16199;SDS011;8207;52.494;4.654;2024-03-08T05:09:58;46.65;;;25.27;;
16199;SDS011;8207;52.494;4.654;2024-03-08T05:12:24;45.58;;;25.35;;
16199;SDS011;8207;52.494;4.654;2024-03-08T05:14:49;48.00;;;25.02;;
16199;SDS011;8207;52.494;4.654;2024-03-08T05:17:15;45.50;;;23.90;;
16199;SDS011;8207;52.494;4.654;2024-03-08T05:19:41;47.20;;;25.58;;
16199;SDS011;8207;52.494;4.654;2024-03-08T05:22:07;50.63;;;25.50;;
16199;SDS011;8207;52.494;4.654;2024-03-08T05:24:33;45.25;;;24.42;;
16199;SDS011;8207;52.494;4.654;2024-03-08T05:26:58;51.20;;;26.60;;
16199;SDS011;8207;52.494;4.654;2024-03-08T05:29:25;49.30;;;26.25;;
16199;SDS011;8207;52.494;4.654;2024-03-08T05:31:51;48.28;;;24.60;;
16199;SDS011;8207;52.494;4.654;2024-03-08T05:34:20;45.80;;;24.45;;
16199;SDS011;8207;52.494;4.654;2024-03-08T05:36:47;52.15;;;26.73;;
16199;SDS011;8207;52.494;4.654;2024-03-08T05:39:14;47.45;;;25.08;;
16199;SDS011;8207;52.494;4.654;2024-03-08T05:41:40;49.13;;;25.52;;
16199;SDS011;8207;52.494;4.654;2024-03-08T05:44:06;48.45;;;25.17;;
16199;SDS011;8207;52.494;4.654;2024-03-08T05:46:31;48.17;;;25.17;;
16199;SDS011;8207;52.494;4.654;2024-03-08T05:48:57;49.63;;;26.08;;
16199;SDS011;8207;52.494;4.654;2024-03-08T05:51:24;47.58;;;25.23;;
16199;SDS011;8207;52.494;4.654;2024-03-08T05:53:52;51.03;;;27.02;;
16199;SDS011;8207;52.494;4.654;2024-03-08T05:56:18;46.63;;;25.35;;
16199;SDS011;8207;52.494;4.654;2024-03-08T05:58:44;49.92;;;25.52;;
16199;SDS011;8207;52.494;4.654;2024-03-08T06:01:10;49.13;;;25.42;;
16199;SDS011;8207;52.494;4.654;2024-03-08T06:03:37;52.10;;;26.58;;
16199;SDS011;8207;52.494;4.654;2024-03-08T06:06:09;49.15;;;26.25;;
16199;SDS011;8207;52.494;4.654;2024-03-08T06:08:37;49.28;;;25.50;;
16199;SDS011;8207;52.494;4.654;2024-03-08T06:11:02;50.42;;;26.10;;
16199;SDS011;8207;52.494;4.654;2024-03-08T06:13:28;50.08;;;27.80;;
16199;SDS011;8207;52.494;4.654;2024-03-08T06:15:56;47.00;;;25.75;;
16199;SDS011;8207;52.494;4.654;2024-03-08T06:18:21;50.17;;;26.48;;
16199;SDS011;8207;52.494;4.654;2024-03-08T06:20:47;50.58;;;26.13;;
16199;SDS011;8207;52.494;4.654;2024-03-08T06:23:12;51.88;;;26.38;;
16199;SDS011;8207;52.494;4.654;2024-03-08T06:25:39;48.97;;;26.30;;
16199;SDS011;8207;52.494;4.654;2024-03-08T06:28:04;49.92;;;27.10;;
16199;SDS011;8207;52.494;4.654;2024-03-08T06:30:30;48.85;;;27.33;;
16199;SDS011;8207;52.494;4.654;2024-03-08T06:32:56;50.30;;;27.30;;
16199;SDS011;8207;52.494;4.654;2024-03-08T06:35:21;54.15;;;27.20;;
16199;SDS011;8207;52.494;4.654;2024-03-08T06:37:47;50.95;;;26.27;;
16199;SDS011;8207;52.494;4.654;2024-03-08T06:40:13;48.08;;;26.83;;
16199;SDS011;8207;52.494;4.654;2024-03-08T06:42:39;48.85;;;26.35;;
16199;SDS011;8207;52.494;4.654;2024-03-08T06:45:05;51.47;;;26.65;;
16199;SDS011;8207;52.494;4.654;2024-03-08T06:47:31;50.78;;;26.80;;
16199;SDS011;8207;52.494;4.654;2024-03-08T06:49:57;49.92;;;26.73;;
16199;SDS011;8207;52.494;4.654;2024-03-08T06:52:22;50.05;;;26.10;;
16199;SDS011;8207;52.494;4.654;2024-03-08T06:54:48;50.33;;;26.75;;
16199;SDS011;8207;52.494;4.654;2024-03-08T06:57:14;54.78;;;27.30;;
16199;SDS011;8207;52.494;4.654;2024-03-08T06:59:41;50.60;;;26.65;;
16199;SDS011;8207;52.494;4.654;2024-03-08T07:02:07;50.10;;;26.05;;
16199;SDS011;8207;52.494;4.654;2024-03-08T07:04:34;51.17;;;26.60;;
16199;SDS011;8207;52.494;4.654;2024-03-08T07:07:03;51.78;;;27.30;;
16199;SDS011;8207;52.494;4.654;2024-03-08T07:09:29;54.03;;;27.67;;
16199;SDS011;8207;52.494;4.654;2024-03-08T07:11:54;47.88;;;26.23;;
16199;SDS011;8207;52.494;4.654;2024-03-08T07:14:22;50.67;;;27.77;;
16199;SDS011;8207;52.494;4.654;2024-03-08T07:16:49;51.03;;;27.77;;
16199;SDS011;8207;52.494;4.654;2024-03-08T07:19:14;49.58;;;26.33;;
16199;SDS011;8207;52.494;4.654;2024-03-08T07:21:44;50.05;;;26.88;;
16199;SDS011;8207;52.494;4.654;2024-03-08T07:24:12;52.00;;;26.25;;
16199;SDS011;8207;52.494;4.654;2024-03-08T07:27:03;54.45;;;28.08;;
16199;SDS011;8207;52.494;4.654;2024-03-08T07:29:30;51.25;;;27.38;;
16199;SDS011;8207;52.494;4.654;2024-03-08T07:31:55;53.33;;;26.65;;
16199;SDS011;8207;52.494;4.654;2024-03-08T07:34:27;50.67;;;27.00;;
16199;SDS011;8207;52.494;4.654;2024-03-08T07:36:57;51.55;;;27.52;;
16199;SDS011;8207;52.494;4.654;2024-03-08T07:39:23;50.55;;;27.38;;
16199;SDS011;8207;52.494;4.654;2024-03-08T07:41:48;50.47;;;26.92;;
16199;SDS011;8207;52.494;4.654;2024-03-08T07:44:14;48.72;;;26.65;;
16199;SDS011;8207;52.494;4.654;2024-03-08T07:46:40;50.90;;;26.85;;
16199;SDS011;8207;52.494;4.654;2024-03-08T07:49:06;48.92;;;26.55;;
16199;SDS011;8207;52.494;4.654;2024-03-08T07:51:31;47.58;;;27.25;;
16199;SDS011;8207;52.494;4.654;2024-03-08T07:53:59;50.83;;;26.90;;
16199;SDS011;8207;52.494;4.654;2024-03-08T07:56:25;50.50;;;26.55;;
16199;SDS011;8207;52.494;4.654;2024-03-08T07:58:50;50.72;;;27.73;;
16199;SDS011;8207;52.494;4.654;2024-03-08T08:01:19;50.10;;;26.80;;
16199;SDS011;8207;52.494;4.654;2024-03-08T08:03:45;47.50;;;26.35;;
16199;SDS011;8207;52.494;4.654;2024-03-08T08:06:11;47.90;;;26.63;;
16199;SDS011;8207;52.494;4.654;2024-03-08T08:08:43;45.72;;;26.38;;
16199;SDS011;8207;52.494;4.654;2024-03-08T08:11:09;48.83;;;27.70;;
16199;SDS011;8207;52.494;4.654;2024-03-08T08:13:36;48.05;;;25.45;;
16199;SDS011;8207;52.494;4.654;2024-03-08T08:16:05;44.78;;;25.63;;
16199;SDS011;8207;52.494;4.654;2024-03-08T08:18:33;47.15;;;26.45;;
16199;SDS011;8207;52.494;4.654;2024-03-08T08:21:00;44.00;;;25.67;;
16199;SDS011;8207;52.494;4.654;2024-03-08T08:23:25;47.42;;;26.35;;
16199;SDS011;8207;52.494;4.654;2024-03-08T08:25:51;45.45;;;25.98;;
16199;SDS011;8207;52.494;4.654;2024-03-08T08:28:16;51.28;;;26.73;;
16199;SDS011;8207;52.494;4.654;2024-03-08T08:30:43;47.85;;;26.60;;
16199;SDS011;8207;52.494;4.654;2024-03-08T08:33:08;46.63;;;27.20;;
16199;SDS011;8207;52.494;4.654;2024-03-08T08:35:34;45.08;;;25.77;;
16199;SDS011;8207;52.494;4.654;2024-03-08T08:37:59;48.30;;;26.92;;
16199;SDS011;8207;52.494;4.654;2024-03-08T08:40:25;45.25;;;26.10;;
16199;SDS011;8207;52.494;4.654;2024-03-08T08:42:50;49.95;;;28.15;;
16199;SDS011;8207;52.494;4.654;2024-03-08T08:45:22;45.45;;;26.88;;
16199;SDS011;8207;52.494;4.654;2024-03-08T08:47:48;48.08;;;26.58;;
16199;SDS011;8207;52.494;4.654;2024-03-08T08:50:14;46.83;;;26.42;;
16199;SDS011;8207;52.494;4.654;2024-03-08T08:52:41;47.45;;;26.17;;
16199;SDS011;8207;52.494;4.654;2024-03-08T08:55:10;47.83;;;26.42;;
16199;SDS011;8207;52.494;4.654;2024-03-08T08:57:39;51.30;;;26.48;;
16199;SDS011;8207;52.494;4.654;2024-03-08T09:00:05;47.53;;;26.98;;
16199;SDS011;8207;52.494;4.654;2024-03-08T09:02:36;48.20;;;27.80;;
16199;SDS011;8207;52.494;4.654;2024-03-08T09:05:02;49.15;;;26.75;;
16199;SDS011;8207;52.494;4.654;2024-03-08T09:07:28;44.60;;;26.73;;
16199;SDS011;8207;52.494;4.654;2024-03-08T09:09:53;43.63;;;25.42;;
16199;SDS011;8207;52.494;4.654;2024-03-08T09:12:22;45.58;;;26.20;;
16199;SDS011;8207;52.494;4.654;2024-03-08T09:14:48;47.53;;;26.73;;
16199;SDS011;8207;52.494;4.654;2024-03-08T09:17:14;46.13;;;25.73;;
16199;SDS011;8207;52.494;4.654;2024-03-08T09:19:42;45.30;;;25.95;;
16199;SDS011;8207;52.494;4.654;2024-03-08T09:22:08;49.08;;;25.75;;
16199;SDS011;8207;52.494;4.654;2024-03-08T09:24:33;43.42;;;25.92;;
16199;SDS011;8207;52.494;4.654;2024-03-08T09:26:59;42.20;;;25.27;;
16199;SDS011;8207;52.494;4.654;2024-03-08T09:29:24;43.47;;;25.02;;
16199;SDS011;8207;52.494;4.654;2024-03-08T09:31:49;43.50;;;25.65;;
16199;SDS011;8207;52.494;4.654;2024-03-08T09:34:15;42.38;;;25.33;;
16199;SDS011;8207;52.494;4.654;2024-03-08T09:36:40;46.25;;;25.50;;
16199;SDS011;8207;52.494;4.654;2024-03-08T09:39:06;40.03;;;25.15;;
16199;SDS011;8207;52.494;4.654;2024-03-08T09:41:32;43.03;;;25.98;;
16199;SDS011;8207;52.494;4.654;2024-03-08T09:43:59;44.45;;;25.35;;
16199;SDS011;8207;52.494;4.654;2024-03-08T09:46:25;42.22;;;25.33;;
16199;SDS011;8207;52.494;4.654;2024-03-08T09:48:52;43.80;;;24.98;;
16199;SDS011;8207;52.494;4.654;2024-03-08T09:51:19;43.13;;;25.17;;
16199;SDS011;8207;52.494;4.654;2024-03-08T09:56:18;41.78;;;23.77;;
16199;SDS011;8207;52.494;4.654;2024-03-08T09:58:44;40.70;;;24.10;;
16199;SDS011;8207;52.494;4.654;2024-03-08T10:01:45;40.28;;;23.70;;
16199;SDS011;8207;52.494;4.654;2024-03-08T10:04:11;41.58;;;24.52;;
16199;SDS011;8207;52.494;4.654;2024-03-08T10:06:36;40.88;;;24.92;;
16199;SDS011;8207;52.494;4.654;2024-03-08T10:09:02;40.05;;;24.13;;
16199;SDS011;8207;52.494;4.654;2024-03-08T10:11:27;43.08;;;25.13;;
16199;SDS011;8207;52.494;4.654;2024-03-08T10:13:53;38.78;;;23.50;;
16199;SDS011;8207;52.494;4.654;2024-03-08T10:16:19;39.70;;;24.67;;
16199;SDS011;8207;52.494;4.654;2024-03-08T10:18:45;40.70;;;24.27;;
16199;SDS011;8207;52.494;4.654;2024-03-08T10:21:11;39.58;;;23.75;;
16199;SDS011;8207;52.494;4.654;2024-03-08T10:23:37;42.92;;;24.08;;
16199;SDS011;8207;52.494;4.654;2024-03-08T10:26:15;40.55;;;23.52;;
16199;SDS011;8207;52.494;4.654;2024-03-08T10:28:43;40.63;;;24.25;;
16199;SDS011;8207;52.494;4.654;2024-03-08T10:31:10;38.17;;;23.98;;
16199;SDS011;8207;52.494;4.654;2024-03-08T10:33:35;38.22;;;23.05;;
16199;SDS011;8207;52.494;4.654;2024-03-08T10:36:03;39.03;;;23.75;;
16199;SDS011;8207;52.494;4.654;2024-03-08T10:38:29;42.20;;;24.52;;
16199;SDS011;8207;52.494;4.654;2024-03-08T10:40:57;39.65;;;24.30;;
16199;SDS011;8207;52.494;4.654;2024-03-08T10:43:25;38.47;;;22.00;;
16199;SDS011;8207;52.494;4.654;2024-03-08T10:45:59;37.83;;;23.35;;
16199;SDS011;8207;52.494;4.654;2024-03-08T10:48:34;37.58;;;23.30;;
16199;SDS011;8207;52.494;4.654;2024-03-08T10:51:08;37.60;;;23.48;;
16199;SDS011;8207;52.494;4.654;2024-03-08T10:53:40;36.28;;;22.40;;
16199;SDS011;8207;52.494;4.654;2024-03-08T10:56:06;35.28;;;22.42;;
16199;SDS011;8207;52.494;4.654;2024-03-08T10:58:32;37.53;;;22.50;;
16199;SDS011;8207;52.494;4.654;2024-03-08T11:01:00;38.13;;;23.17;;
16199;SDS011;8207;52.494;4.654;2024-03-08T11:09:03;36.88;;;22.23;;
16199;SDS011;8207;52.494;4.654;2024-03-08T11:11:38;37.47;;;23.08;;
16199;SDS011;8207;52.494;4.654;2024-03-08T11:14:07;38.92;;;24.25;;
16199;SDS011;8207;52.494;4.654;2024-03-08T11:17:08;35.25;;;22.00;;
16199;SDS011;8207;52.494;4.654;2024-03-08T11:19:34;39.15;;;22.27;;
16199;SDS011;8207;52.494;4.654;2024-03-08T11:22:00;34.92;;;22.23;;
16199;SDS011;8207;52.494;4.654;2024-03-08T11:24:27;33.22;;;21.73;;
16199;SDS011;8207;52.494;4.654;2024-03-08T11:26:59;34.67;;;22.00;;
16199;SDS011;8207;52.494;4.654;2024-03-08T11:31:52;35.75;;;22.33;;
16199;SDS011;8207;52.494;4.654;2024-03-08T11:34:19;34.60;;;22.30;;
16199;SDS011;8207;52.494;4.654;2024-03-08T11:36:49;32.38;;;21.40;;
16199;SDS011;8207;52.494;4.654;2024-03-08T11:39:21;35.42;;;22.33;;
16199;SDS011;8207;52.494;4.654;2024-03-08T11:41:49;34.63;;;22.02;;
16199;SDS011;8207;52.494;4.654;2024-03-08T11:44:21;34.45;;;21.73;;
16199;SDS011;8207;52.494;4.654;2024-03-08T11:46:52;36.50;;;23.05;;
16199;SDS011;8207;52.494;4.654;2024-03-08T11:49:19;34.10;;;22.00;;
16199;SDS011;8207;52.494;4.654;2024-03-08T11:51:50;38.00;;;21.75;;
16199;SDS011;8207;52.494;4.654;2024-03-08T11:54:18;35.22;;;21.75;;
16199;SDS011;8207;52.494;4.654;2024-03-08T11:56:44;37.28;;;23.73;;
16199;SDS011;8207;52.494;4.654;2024-03-08T11:59:12;36.50;;;23.08;;
16199;SDS011;8207;52.494;4.654;2024-03-08T12:01:38;38.65;;;24.23;;
16199;SDS011;8207;52.494;4.654;2024-03-08T12:04:04;35.40;;;22.92;;
16199;SDS011;8207;52.494;4.654;2024-03-08T12:06:37;35.95;;;23.48;;
16199;SDS011;8207;52.494;4.654;2024-03-08T12:09:04;36.70;;;22.80;;
16199;SDS011;8207;52.494;4.654;2024-03-08T12:11:34;37.97;;;24.00;;
16199;SDS011;8207;52.494;4.654;2024-03-08T12:14:00;36.92;;;23.15;;
16199;SDS011;8207;52.494;4.654;2024-03-08T12:16:26;36.40;;;22.38;;
16199;SDS011;8207;52.494;4.654;2024-03-08T12:18:52;38.47;;;23.42;;
16199;SDS011;8207;52.494;4.654;2024-03-08T12:21:21;39.58;;;22.42;;
16199;SDS011;8207;52.494;4.654;2024-03-08T12:23:51;36.00;;;22.23;;
16199;SDS011;8207;52.494;4.654;2024-03-08T12:26:36;39.35;;;23.08;;
16199;SDS011;8207;52.494;4.654;2024-03-08T12:31:52;36.25;;;23.15;;
16199;SDS011;8207;52.494;4.654;2024-03-08T12:34:26;36.40;;;23.52;;
16199;SDS011;8207;52.494;4.654;2024-03-08T12:36:53;35.83;;;22.92;;
16199;SDS011;8207;52.494;4.654;2024-03-08T12:39:20;35.20;;;22.23;;
16199;SDS011;8207;52.494;4.654;2024-03-08T12:41:52;36.35;;;22.65;;
16199;SDS011;8207;52.494;4.654;2024-03-08T12:44:19;38.75;;;23.23;;
16199;SDS011;8207;52.494;4.654;2024-03-08T12:46:46;36.88;;;24.10;;
16199;SDS011;8207;52.494;4.654;2024-03-08T12:49:12;37.95;;;22.65;;
16199;SDS011;8207;52.494;4.654;2024-03-08T12:51:42;37.13;;;23.10;;
16199;SDS011;8207;52.494;4.654;2024-03-08T12:54:11;35.35;;;23.23;;
16199;SDS011;8207;52.494;4.654;2024-03-08T12:56:48;35.85;;;23.60;;
16199;SDS011;8207;52.494;4.654;2024-03-08T12:59:15;39.83;;;25.02;;
16199;SDS011;8207;52.494;4.654;2024-03-08T13:01:41;36.72;;;23.35;;
16199;SDS011;8207;52.494;4.654;2024-03-08T13:04:06;39.67;;;23.52;;
16199;SDS011;8207;52.494;4.654;2024-03-08T13:06:36;42.55;;;23.02;;
16199;SDS011;8207;52.494;4.654;2024-03-08T13:09:01;34.42;;;22.40;;
16199;SDS011;8207;52.494;4.654;2024-03-08T13:11:30;37.55;;;24.08;;
16199;SDS011;8207;52.494;4.654;2024-03-08T13:13:59;37.28;;;23.33;;
16199;SDS011;8207;52.494;4.654;2024-03-08T13:16:24;36.90;;;23.13;;
16199;SDS011;8207;52.494;4.654;2024-03-08T13:18:50;36.83;;;23.08;;
16199;SDS011;8207;52.494;4.654;2024-03-08T13:21:15;40.53;;;23.92;;
16199;SDS011;8207;52.494;4.654;2024-03-08T13:23:43;37.42;;;23.20;;
16199;SDS011;8207;52.494;4.654;2024-03-08T13:26:11;38.20;;;23.67;;
16199;SDS011;8207;52.494;4.654;2024-03-08T13:28:41;40.28;;;24.25;;
16199;SDS011;8207;52.494;4.654;2024-03-08T13:31:18;38.78;;;23.55;;
16199;SDS011;8207;52.494;4.654;2024-03-08T13:33:44;37.95;;;22.95;;
16199;SDS011;8207;52.494;4.654;2024-03-08T13:36:11;36.67;;;22.88;;
16199;SDS011;8207;52.494;4.654;2024-03-08T13:38:44;35.75;;;22.95;;
16199;SDS011;8207;52.494;4.654;2024-03-08T13:41:12;38.17;;;23.75;;
16199;SDS011;8207;52.494;4.654;2024-03-08T13:43:42;36.03;;;22.70;;
16199;SDS011;8207;52.494;4.654;2024-03-08T13:46:18;36.88;;;22.60;;
16199;SDS011;8207;52.494;4.654;2024-03-08T13:48:43;37.53;;;21.67;;
16199;SDS011;8207;52.494;4.654;2024-03-08T13:51:09;35.83;;;21.70;;
16199;SDS011;8207;52.494;4.654;2024-03-08T13:53:40;32.58;;;20.63;;
16199;SDS011;8207;52.494;4.654;2024-03-08T13:56:06;30.92;;;19.55;;
16199;SDS011;8207;52.494;4.654;2024-03-08T13:58:31;32.55;;;20.35;;
16199;SDS011;8207;52.494;4.654;2024-03-08T14:00:57;39.20;;;20.65;;
16199;SDS011;8207;52.494;4.654;2024-03-08T14:03:22;31.63;;;19.85;;
16199;SDS011;8207;52.494;4.654;2024-03-08T14:05:49;33.38;;;21.25;;
16199;SDS011;8207;52.494;4.654;2024-03-08T14:08:17;30.67;;;19.25;;
16199;SDS011;8207;52.494;4.654;2024-03-08T14:10:43;31.55;;;20.70;;
16199;SDS011;8207;52.494;4.654;2024-03-08T14:13:11;33.95;;;19.48;;
16199;SDS011;8207;52.494;4.654;2024-03-08T14:15:37;31.85;;;19.70;;
16199;SDS011;8207;52.494;4.654;2024-03-08T14:18:07;31.83;;;20.30;;
16199;SDS011;8207;52.494;4.654;2024-03-08T14:20:32;33.85;;;20.70;;
16199;SDS011;8207;52.494;4.654;2024-03-08T14:22:57;31.55;;;19.98;;
16199;SDS011;8207;52.494;4.654;2024-03-08T14:25:23;34.42;;;20.85;;
16199;SDS011;8207;52.494;4.654;2024-03-08T14:27:52;32.55;;;20.85;;
16199;SDS011;8207;52.494;4.654;2024-03-08T14:30:19;31.98;;;20.42;;
16199;SDS011;8207;52.494;4.654;2024-03-08T14:33:05;32.97;;;20.85;;
16199;SDS011;8207;52.494;4.654;2024-03-08T14:35:31;37.92;;;20.40;;
16199;SDS011;8207;52.494;4.654;2024-03-08T14:37:57;30.88;;;20.08;;
16199;SDS011;8207;52.494;4.654;2024-03-08T14:40:23;33.83;;;20.98;;
16199;SDS011;8207;52.494;4.654;2024-03-08T14:42:49;29.90;;;19.83;;
16199;SDS011;8207;52.494;4.654;2024-03-08T14:45:15;32.10;;;20.40;;